sensor_id;sensor_type;location;lat;lon;timestamp;P1;durP1;ratioP1;P2;durP2;ratioP2
56255;SDS011;57229;51.432;-2.598;2023-04-03T00:00:24;8.48;;;6.60;;
56255;SDS011;57229;51.432;-2.598;2023-04-03T00:02:50;9.40;;;6.38;;
56255;SDS011;57229;51.432;-2.598;2023-04-03T00:05:16;16.05;;;7.15;;
56255;SDS011;57229;51.432;-2.598;2023-04-03T00:07:42;11.07;;;6.95;;
56255;SDS011;57229;51.432;-2.598;2023-04-03T00:10:07;15.50;;;7.72;;
56255;SDS011;57229;51.432;-2.598;2023-04-03T00:12:33;11.00;;;7.43;;
56255;SDS011;57229;51.432;-2.598;2023-04-03T00:14:59;14.02;;;7.20;;
56255;SDS011;57229;51.432;-2.598;2023-04-03T00:17:25;14.15;;;7.53;;
56255;SDS011;57229;51.432;-2.598;2023-04-03T00:19:50;12.45;;;6.93;;
56255;SDS011;57229;51.432;-2.598;2023-04-03T00:22:16;13.25;;;7.40;;
56255;SDS011;57229;51.432;-2.598;2023-04-03T00:24:42;13.60;;;7.50;;
56255;SDS011;57229;51.432;-2.598;2023-04-03T00:27:07;15.77;;;7.82;;
56255;SDS011;57229;51.432;-2.598;2023-04-03T00:29:33;16.60;;;7.90;;
56255;SDS011;57229;51.432;-2.598;2023-04-03T00:31:59;14.13;;;8.18;;
56255;SDS011;57229;51.432;-2.598;2023-04-03T00:34:25;17.70;;;7.65;;
56255;SDS011;57229;51.432;-2.598;2023-04-03T00:36:51;12.00;;;7.40;;
56255;SDS011;57229;51.432;-2.598;2023-04-03T00:39:17;18.70;;;7.53;;
56255;SDS011;57229;51.432;-2.598;2023-04-03T00:41:42;12.30;;;7.80;;
56255;SDS011;57229;51.432;-2.598;2023-04-03T00:44:21;10.93;;;6.97;;
56255;SDS011;57229;51.432;-2.598;2023-04-03T00:47:08;11.90;;;6.95;;
56255;SDS011;57229;51.432;-2.598;2023-04-03T00:49:37;13.02;;;6.88;;
56255;SDS011;57229;51.432;-2.598;2023-04-03T00:52:05;14.35;;;6.55;;
56255;SDS011;57229;51.432;-2.598;2023-04-03T00:54:33;14.00;;;6.65;;
56255;SDS011;57229;51.432;-2.598;2023-04-03T00:57:01;11.32;;;6.57;;
56255;SDS011;57229;51.432;-2.598;2023-04-03T00:59:30;10.82;;;6.72;;
56255;SDS011;57229;51.432;-2.598;2023-04-03T01:01:59;8.68;;;6.07;;
56255;SDS011;57229;51.432;-2.598;2023-04-03T01:04:26;10.60;;;6.65;;
56255;SDS011;57229;51.432;-2.598;2023-04-03T01:06:57;12.27;;;6.03;;
56255;SDS011;57229;51.432;-2.598;2023-04-03T01:09:46;17.58;;;6.97;;
56255;SDS011;57229;51.432;-2.598;2023-04-03T01:14:48;11.88;;;6.93;;
56255;SDS011;57229;51.432;-2.598;2023-04-03T01:28:12;11.13;;;6.65;;
56255;SDS011;57229;51.432;-2.598;2023-04-03T01:30:48;11.18;;;6.22;;
56255;SDS011;57229;51.432;-2.598;2023-04-03T01:33:39;12.20;;;6.57;;
56255;SDS011;57229;51.432;-2.598;2023-04-03T01:36:05;12.55;;;6.88;;
56255;SDS011;57229;51.432;-2.598;2023-04-03T01:38:32;7.85;;;6.47;;
56255;SDS011;57229;51.432;-2.598;2023-04-03T01:40:58;8.85;;;6.70;;
56255;SDS011;57229;51.432;-2.598;2023-04-03T01:43:24;11.90;;;6.32;;
56255;SDS011;57229;51.432;-2.598;2023-04-03T01:45:50;10.90;;;6.45;;
56255;SDS011;57229;51.432;-2.598;2023-04-03T01:48:17;10.15;;;6.80;;
56255;SDS011;57229;51.432;-2.598;2023-04-03T01:50:43;11.20;;;6.75;;
56255;SDS011;57229;51.432;-2.598;2023-04-03T01:53:09;12.02;;;6.75;;
56255;SDS011;57229;51.432;-2.598;2023-04-03T01:55:35;13.25;;;6.60;;
56255;SDS011;57229;51.432;-2.598;2023-04-03T01:58:00;12.45;;;6.72;;
56255;SDS011;57229;51.432;-2.598;2023-04-03T02:00:26;12.15;;;6.85;;
56255;SDS011;57229;51.432;-2.598;2023-04-03T02:02:52;12.57;;;6.60;;
56255;SDS011;57229;51.432;-2.598;2023-04-03T02:05:18;11.88;;;6.85;;
56255;SDS011;57229;51.432;-2.598;2023-04-03T02:07:44;13.38;;;7.30;;
56255;SDS011;57229;51.432;-2.598;2023-04-03T02:10:09;10.40;;;6.88;;
56255;SDS011;57229;51.432;-2.598;2023-04-03T02:12:35;8.98;;;6.65;;
56255;SDS011;57229;51.432;-2.598;2023-04-03T02:15:01;8.18;;;6.93;;
56255;SDS011;57229;51.432;-2.598;2023-04-03T02:17:27;11.95;;;7.10;;
56255;SDS011;57229;51.432;-2.598;2023-04-03T02:19:53;13.35;;;7.35;;
56255;SDS011;57229;51.432;-2.598;2023-04-03T02:22:18;11.10;;;6.65;;
56255;SDS011;57229;51.432;-2.598;2023-04-03T02:24:45;12.40;;;7.45;;
56255;SDS011;57229;51.432;-2.598;2023-04-03T02:27:10;10.80;;;6.90;;
56255;SDS011;57229;51.432;-2.598;2023-04-03T02:29:36;14.27;;;7.25;;
56255;SDS011;57229;51.432;-2.598;2023-04-03T02:32:02;14.85;;;7.60;;
56255;SDS011;57229;51.432;-2.598;2023-04-03T02:34:28;11.73;;;6.85;;
56255;SDS011;57229;51.432;-2.598;2023-04-03T02:36:53;15.73;;;6.88;;
56255;SDS011;57229;51.432;-2.598;2023-04-03T02:39:19;13.13;;;7.03;;
56255;SDS011;57229;51.432;-2.598;2023-04-03T02:41:45;12.27;;;7.32;;
56255;SDS011;57229;51.432;-2.598;2023-04-03T02:44:11;14.80;;;7.57;;
56255;SDS011;57229;51.432;-2.598;2023-04-03T02:46:37;12.98;;;7.50;;
56255;SDS011;57229;51.432;-2.598;2023-04-03T02:49:02;8.98;;;7.22;;
56255;SDS011;57229;51.432;-2.598;2023-04-03T02:51:28;13.68;;;7.55;;
56255;SDS011;57229;51.432;-2.598;2023-04-03T02:53:55;8.80;;;7.53;;
56255;SDS011;57229;51.432;-2.598;2023-04-03T02:56:20;17.45;;;7.75;;
56255;SDS011;57229;51.432;-2.598;2023-04-03T02:58:46;11.95;;;7.43;;
56255;SDS011;57229;51.432;-2.598;2023-04-03T03:01:12;10.27;;;7.47;;
56255;SDS011;57229;51.432;-2.598;2023-04-03T03:03:38;13.98;;;7.63;;
56255;SDS011;57229;51.432;-2.598;2023-04-03T03:06:04;14.90;;;7.95;;
56255;SDS011;57229;51.432;-2.598;2023-04-03T03:08:31;13.45;;;7.70;;
56255;SDS011;57229;51.432;-2.598;2023-04-03T03:10:57;15.43;;;8.02;;
56255;SDS011;57229;51.432;-2.598;2023-04-03T03:13:22;13.82;;;7.88;;
56255;SDS011;57229;51.432;-2.598;2023-04-03T03:15:48;15.48;;;8.25;;
56255;SDS011;57229;51.432;-2.598;2023-04-03T03:18:14;11.15;;;7.30;;
56255;SDS011;57229;51.432;-2.598;2023-04-03T03:20:40;10.57;;;7.95;;
56255;SDS011;57229;51.432;-2.598;2023-04-03T03:23:06;13.57;;;7.88;;
56255;SDS011;57229;51.432;-2.598;2023-04-03T03:25:31;14.27;;;7.32;;
56255;SDS011;57229;51.432;-2.598;2023-04-03T03:27:57;13.43;;;7.57;;
56255;SDS011;57229;51.432;-2.598;2023-04-03T03:30:23;10.73;;;7.55;;
56255;SDS011;57229;51.432;-2.598;2023-04-03T03:32:48;15.43;;;7.72;;
56255;SDS011;57229;51.432;-2.598;2023-04-03T03:35:14;13.65;;;7.60;;
56255;SDS011;57229;51.432;-2.598;2023-04-03T03:37:40;12.60;;;7.68;;
56255;SDS011;57229;51.432;-2.598;2023-04-03T03:40:06;11.40;;;8.15;;
56255;SDS011;57229;51.432;-2.598;2023-04-03T03:42:32;10.30;;;7.30;;
56255;SDS011;57229;51.432;-2.598;2023-04-03T03:44:57;13.10;;;7.47;;
56255;SDS011;57229;51.432;-2.598;2023-04-03T03:47:23;16.02;;;7.47;;
56255;SDS011;57229;51.432;-2.598;2023-04-03T03:49:49;12.85;;;7.50;;
56255;SDS011;57229;51.432;-2.598;2023-04-03T03:52:14;9.77;;;7.13;;
56255;SDS011;57229;51.432;-2.598;2023-04-03T03:54:40;15.70;;;8.07;;
56255;SDS011;57229;51.432;-2.598;2023-04-03T03:57:06;11.43;;;7.75;;
56255;SDS011;57229;51.432;-2.598;2023-04-03T03:59:31;14.27;;;7.68;;
56255;SDS011;57229;51.432;-2.598;2023-04-03T04:01:57;15.25;;;7.18;;
56255;SDS011;57229;51.432;-2.598;2023-04-03T04:04:23;11.32;;;7.68;;
56255;SDS011;57229;51.432;-2.598;2023-04-03T04:06:48;12.20;;;7.53;;
56255;SDS011;57229;51.432;-2.598;2023-04-03T04:09:14;12.27;;;8.07;;
56255;SDS011;57229;51.432;-2.598;2023-04-03T04:11:40;15.52;;;7.75;;
56255;SDS011;57229;51.432;-2.598;2023-04-03T04:14:06;13.70;;;7.78;;
56255;SDS011;57229;51.432;-2.598;2023-04-03T04:16:32;11.82;;;7.63;;
56255;SDS011;57229;51.432;-2.598;2023-04-03T04:18:57;10.45;;;7.90;;
56255;SDS011;57229;51.432;-2.598;2023-04-03T04:21:23;19.65;;;8.32;;
56255;SDS011;57229;51.432;-2.598;2023-04-03T04:23:49;12.35;;;7.80;;
56255;SDS011;57229;51.432;-2.598;2023-04-03T04:26:14;15.15;;;7.82;;
56255;SDS011;57229;51.432;-2.598;2023-04-03T04:28:40;9.25;;;8.27;;
56255;SDS011;57229;51.432;-2.598;2023-04-03T04:31:06;15.02;;;8.48;;
56255;SDS011;57229;51.432;-2.598;2023-04-03T04:33:31;14.25;;;7.90;;
56255;SDS011;57229;51.432;-2.598;2023-04-03T04:35:57;10.15;;;7.50;;
56255;SDS011;57229;51.432;-2.598;2023-04-03T04:38:23;15.88;;;8.27;;
56255;SDS011;57229;51.432;-2.598;2023-04-03T04:40:48;18.00;;;7.80;;
56255;SDS011;57229;51.432;-2.598;2023-04-03T04:43:16;13.68;;;7.90;;
56255;SDS011;57229;51.432;-2.598;2023-04-03T04:45:42;15.80;;;7.68;;
56255;SDS011;57229;51.432;-2.598;2023-04-03T04:48:08;11.98;;;7.85;;
56255;SDS011;57229;51.432;-2.598;2023-04-03T04:50:34;16.33;;;7.93;;
56255;SDS011;57229;51.432;-2.598;2023-04-03T04:53:00;11.38;;;8.00;;
56255;SDS011;57229;51.432;-2.598;2023-04-03T04:55:25;13.27;;;8.05;;
56255;SDS011;57229;51.432;-2.598;2023-04-03T04:57:51;19.85;;;8.07;;
56255;SDS011;57229;51.432;-2.598;2023-04-03T05:00:17;11.35;;;7.10;;
56255;SDS011;57229;51.432;-2.598;2023-04-03T05:02:43;12.98;;;7.70;;
56255;SDS011;57229;51.432;-2.598;2023-04-03T05:05:08;9.68;;;7.55;;
56255;SDS011;57229;51.432;-2.598;2023-04-03T05:07:34;9.48;;;7.63;;
56255;SDS011;57229;51.432;-2.598;2023-04-03T05:10:00;12.98;;;7.65;;
56255;SDS011;57229;51.432;-2.598;2023-04-03T05:12:27;16.05;;;8.45;;
56255;SDS011;57229;51.432;-2.598;2023-04-03T05:14:53;10.32;;;8.13;;
56255;SDS011;57229;51.432;-2.598;2023-04-03T05:17:19;10.88;;;8.07;;
56255;SDS011;57229;51.432;-2.598;2023-04-03T05:19:45;14.63;;;7.80;;
56255;SDS011;57229;51.432;-2.598;2023-04-03T05:22:11;14.38;;;8.55;;
56255;SDS011;57229;51.432;-2.598;2023-04-03T05:24:37;20.70;;;8.75;;
56255;SDS011;57229;51.432;-2.598;2023-04-03T05:27:02;13.07;;;8.55;;
56255;SDS011;57229;51.432;-2.598;2023-04-03T05:29:28;17.38;;;7.80;;
56255;SDS011;57229;51.432;-2.598;2023-04-03T05:31:54;14.00;;;7.93;;
56255;SDS011;57229;51.432;-2.598;2023-04-03T05:34:20;13.63;;;7.63;;
56255;SDS011;57229;51.432;-2.598;2023-04-03T05:36:46;14.73;;;8.10;;
56255;SDS011;57229;51.432;-2.598;2023-04-03T05:39:14;14.45;;;7.80;;
56255;SDS011;57229;51.432;-2.598;2023-04-03T05:41:40;13.18;;;8.13;;
56255;SDS011;57229;51.432;-2.598;2023-04-03T05:44:06;11.07;;;7.78;;
56255;SDS011;57229;51.432;-2.598;2023-04-03T05:46:31;14.10;;;7.95;;
56255;SDS011;57229;51.432;-2.598;2023-04-03T05:48:58;11.15;;;7.93;;
56255;SDS011;57229;51.432;-2.598;2023-04-03T05:51:24;10.45;;;7.50;;
56255;SDS011;57229;51.432;-2.598;2023-04-03T05:53:56;13.20;;;7.88;;
56255;SDS011;57229;51.432;-2.598;2023-04-03T05:56:27;15.68;;;8.27;;
56255;SDS011;57229;51.432;-2.598;2023-04-03T05:58:53;20.85;;;8.63;;
56255;SDS011;57229;51.432;-2.598;2023-04-03T06:01:20;11.93;;;8.30;;
56255;SDS011;57229;51.432;-2.598;2023-04-03T06:03:46;11.63;;;8.25;;
56255;SDS011;57229;51.432;-2.598;2023-04-03T06:06:12;14.88;;;8.20;;
56255;SDS011;57229;51.432;-2.598;2023-04-03T06:08:39;11.85;;;7.97;;
56255;SDS011;57229;51.432;-2.598;2023-04-03T06:11:05;19.00;;;9.18;;
56255;SDS011;57229;51.432;-2.598;2023-04-03T06:13:31;14.80;;;8.75;;
56255;SDS011;57229;51.432;-2.598;2023-04-03T06:15:56;12.30;;;8.10;;
56255;SDS011;57229;51.432;-2.598;2023-04-03T06:18:22;14.05;;;8.60;;
56255;SDS011;57229;51.432;-2.598;2023-04-03T06:20:48;12.82;;;8.73;;
56255;SDS011;57229;51.432;-2.598;2023-04-03T06:23:14;16.55;;;9.18;;
56255;SDS011;57229;51.432;-2.598;2023-04-03T06:25:39;12.20;;;7.90;;
56255;SDS011;57229;51.432;-2.598;2023-04-03T06:28:05;9.90;;;8.15;;
56255;SDS011;57229;51.432;-2.598;2023-04-03T06:30:34;17.15;;;9.23;;
56255;SDS011;57229;51.432;-2.598;2023-04-03T06:33:00;16.60;;;9.25;;
56255;SDS011;57229;51.432;-2.598;2023-04-03T06:35:25;20.02;;;8.82;;
56255;SDS011;57229;51.432;-2.598;2023-04-03T06:37:53;15.77;;;10.85;;
56255;SDS011;57229;51.432;-2.598;2023-04-03T06:40:20;17.60;;;8.70;;
56255;SDS011;57229;51.432;-2.598;2023-04-03T06:42:48;17.90;;;8.73;;
56255;SDS011;57229;51.432;-2.598;2023-04-03T06:45:14;13.02;;;8.35;;
56255;SDS011;57229;51.432;-2.598;2023-04-03T06:47:40;12.90;;;8.50;;
56255;SDS011;57229;51.432;-2.598;2023-04-03T06:50:06;30.00;;;12.68;;
56255;SDS011;57229;51.432;-2.598;2023-04-03T06:52:33;26.58;;;12.38;;
56255;SDS011;57229;51.432;-2.598;2023-04-03T06:54:59;18.83;;;10.52;;
56255;SDS011;57229;51.432;-2.598;2023-04-03T06:57:25;24.52;;;13.25;;
56255;SDS011;57229;51.432;-2.598;2023-04-03T06:59:51;26.20;;;12.35;;
56255;SDS011;57229;51.432;-2.598;2023-04-03T07:02:17;18.75;;;11.55;;
56255;SDS011;57229;51.432;-2.598;2023-04-03T07:04:42;27.25;;;11.45;;
56255;SDS011;57229;51.432;-2.598;2023-04-03T07:07:08;20.58;;;10.73;;
56255;SDS011;57229;51.432;-2.598;2023-04-03T07:09:34;25.55;;;11.55;;
56255;SDS011;57229;51.432;-2.598;2023-04-03T07:11:59;27.08;;;12.10;;
56255;SDS011;57229;51.432;-2.598;2023-04-03T07:14:25;17.48;;;10.23;;
56255;SDS011;57229;51.432;-2.598;2023-04-03T07:16:51;16.75;;;9.13;;
56255;SDS011;57229;51.432;-2.598;2023-04-03T07:19:17;15.35;;;8.68;;
56255;SDS011;57229;51.432;-2.598;2023-04-03T07:21:43;17.48;;;7.95;;
56255;SDS011;57229;51.432;-2.598;2023-04-03T07:24:09;13.82;;;7.55;;
56255;SDS011;57229;51.432;-2.598;2023-04-03T07:26:35;13.85;;;7.20;;
56255;SDS011;57229;51.432;-2.598;2023-04-03T07:29:01;11.77;;;7.15;;
56255;SDS011;57229;51.432;-2.598;2023-04-03T07:31:27;12.73;;;7.00;;
56255;SDS011;57229;51.432;-2.598;2023-04-03T07:33:53;16.65;;;7.32;;
56255;SDS011;57229;51.432;-2.598;2023-04-03T07:36:20;9.02;;;6.68;;
56255;SDS011;57229;51.432;-2.598;2023-04-03T07:38:47;10.13;;;7.00;;
56255;SDS011;57229;51.432;-2.598;2023-04-03T07:41:18;11.00;;;7.25;;
56255;SDS011;57229;51.432;-2.598;2023-04-03T07:43:45;13.85;;;7.07;;
56255;SDS011;57229;51.432;-2.598;2023-04-03T07:46:12;9.43;;;6.93;;
56255;SDS011;57229;51.432;-2.598;2023-04-03T07:48:37;17.33;;;7.38;;
56255;SDS011;57229;51.432;-2.598;2023-04-03T07:51:04;10.93;;;7.70;;
56255;SDS011;57229;51.432;-2.598;2023-04-03T07:53:30;10.35;;;7.43;;
56255;SDS011;57229;51.432;-2.598;2023-04-03T07:55:57;11.95;;;7.88;;
56255;SDS011;57229;51.432;-2.598;2023-04-03T07:58:23;13.32;;;7.78;;
56255;SDS011;57229;51.432;-2.598;2023-04-03T08:00:51;8.68;;;7.07;;
56255;SDS011;57229;51.432;-2.598;2023-04-03T08:03:19;13.27;;;8.13;;
56255;SDS011;57229;51.432;-2.598;2023-04-03T08:05:46;10.02;;;7.50;;
56255;SDS011;57229;51.432;-2.598;2023-04-03T08:08:14;9.82;;;7.20;;
56255;SDS011;57229;51.432;-2.598;2023-04-03T08:10:48;10.80;;;7.07;;
56255;SDS011;57229;51.432;-2.598;2023-04-03T08:13:17;10.02;;;7.20;;
56255;SDS011;57229;51.432;-2.598;2023-04-03T08:15:44;12.07;;;7.43;;
56255;SDS011;57229;51.432;-2.598;2023-04-03T08:18:10;7.68;;;6.80;;
56255;SDS011;57229;51.432;-2.598;2023-04-03T08:20:37;7.97;;;6.97;;
56255;SDS011;57229;51.432;-2.598;2023-04-03T08:23:03;14.32;;;6.60;;
56255;SDS011;57229;51.432;-2.598;2023-04-03T08:25:29;11.18;;;7.10;;
56255;SDS011;57229;51.432;-2.598;2023-04-03T08:27:55;9.55;;;6.32;;
56255;SDS011;57229;51.432;-2.598;2023-04-03T08:30:21;9.70;;;6.13;;
56255;SDS011;57229;51.432;-2.598;2023-04-03T08:32:47;10.40;;;6.43;;
56255;SDS011;57229;51.432;-2.598;2023-04-03T08:35:13;10.48;;;6.85;;
56255;SDS011;57229;51.432;-2.598;2023-04-03T08:37:39;9.02;;;6.75;;
56255;SDS011;57229;51.432;-2.598;2023-04-03T08:40:05;10.60;;;6.55;;
56255;SDS011;57229;51.432;-2.598;2023-04-03T08:45:43;11.50;;;6.57;;
56255;SDS011;57229;51.432;-2.598;2023-04-03T08:50:45;6.75;;;6.18;;
56255;SDS011;57229;51.432;-2.598;2023-04-03T08:53:17;8.85;;;6.10;;
56255;SDS011;57229;51.432;-2.598;2023-04-03T08:55:51;7.22;;;5.85;;
56255;SDS011;57229;51.432;-2.598;2023-04-03T08:58:26;7.10;;;6.07;;
56255;SDS011;57229;51.432;-2.598;2023-04-03T09:00:56;8.32;;;5.53;;
56255;SDS011;57229;51.432;-2.598;2023-04-03T09:03:40;6.13;;;5.53;;
56255;SDS011;57229;51.432;-2.598;2023-04-03T09:06:17;8.80;;;5.82;;
56255;SDS011;57229;51.432;-2.598;2023-04-03T09:11:50;11.10;;;6.63;;
56255;SDS011;57229;51.432;-2.598;2023-04-03T09:14:36;14.18;;;6.95;;
56255;SDS011;57229;51.432;-2.598;2023-04-03T09:17:06;11.65;;;5.95;;
56255;SDS011;57229;51.432;-2.598;2023-04-03T09:22:46;8.30;;;5.45;;
56255;SDS011;57229;51.432;-2.598;2023-04-03T09:25:23;12.32;;;5.70;;
56255;SDS011;57229;51.432;-2.598;2023-04-03T09:27:57;7.70;;;5.50;;
56255;SDS011;57229;51.432;-2.598;2023-04-03T09:30:25;7.85;;;5.75;;
56255;SDS011;57229;51.432;-2.598;2023-04-03T09:32:54;9.40;;;5.93;;
56255;SDS011;57229;51.432;-2.598;2023-04-03T09:35:26;11.98;;;6.30;;
56255;SDS011;57229;51.432;-2.598;2023-04-03T09:38:00;10.98;;;6.38;;
56255;SDS011;57229;51.432;-2.598;2023-04-03T09:40:40;9.63;;;5.97;;
56255;SDS011;57229;51.432;-2.598;2023-04-03T09:45:43;9.75;;;6.00;;
56255;SDS011;57229;51.432;-2.598;2023-04-03T09:58:40;10.65;;;6.53;;
56255;SDS011;57229;51.432;-2.598;2023-04-03T10:24:54;7.85;;;6.13;;
56255;SDS011;57229;51.432;-2.598;2023-04-03T10:38:11;10.82;;;6.57;;
56255;SDS011;57229;51.432;-2.598;2023-04-03T10:43:54;10.85;;;6.72;;
56255;SDS011;57229;51.432;-2.598;2023-04-03T10:46:38;8.07;;;6.70;;
56255;SDS011;57229;51.432;-2.598;2023-04-03T10:51:42;11.80;;;6.30;;
56255;SDS011;57229;51.432;-2.598;2023-04-03T10:56:56;7.47;;;6.03;;
56255;SDS011;57229;51.432;-2.598;2023-04-03T11:05:13;6.88;;;6.05;;
56255;SDS011;57229;51.432;-2.598;2023-04-03T11:07:51;10.73;;;6.50;;
56255;SDS011;57229;51.432;-2.598;2023-04-03T11:10:26;7.10;;;6.40;;
56255;SDS011;57229;51.432;-2.598;2023-04-03T11:20:05;9.85;;;6.40;;
56255;SDS011;57229;51.432;-2.598;2023-04-03T11:35:45;7.90;;;6.05;;
56255;SDS011;57229;51.432;-2.598;2023-04-03T11:38:23;6.88;;;5.70;;
56255;SDS011;57229;51.432;-2.598;2023-04-03T11:40:55;10.50;;;6.10;;
56255;SDS011;57229;51.432;-2.598;2023-04-03T11:43:55;7.50;;;5.72;;
56255;SDS011;57229;51.432;-2.598;2023-04-03T11:58:01;6.63;;;5.90;;
56255;SDS011;57229;51.432;-2.598;2023-04-03T12:08:44;8.25;;;6.28;;
56255;SDS011;57229;51.432;-2.598;2023-04-03T12:13:41;10.57;;;6.55;;
56255;SDS011;57229;51.432;-2.598;2023-04-03T12:26:40;7.10;;;6.40;;
56255;SDS011;57229;51.432;-2.598;2023-04-03T12:28:47;9.35;;;6.60;;
56255;SDS011;57229;51.432;-2.598;2023-04-03T12:31:14;8.60;;;6.35;;
56255;SDS011;57229;51.432;-2.598;2023-04-03T12:46:26;8.65;;;6.53;;
56255;SDS011;57229;51.432;-2.598;2023-04-03T12:49:02;8.70;;;6.50;;
56255;SDS011;57229;51.432;-2.598;2023-04-03T12:52:37;6.65;;;5.95;;
56255;SDS011;57229;51.432;-2.598;2023-04-03T12:55:16;8.43;;;6.07;;
56255;SDS011;57229;51.432;-2.598;2023-04-03T12:57:46;10.40;;;6.10;;
56255;SDS011;57229;51.432;-2.598;2023-04-03T13:00:46;7.00;;;6.15;;
56255;SDS011;57229;51.432;-2.598;2023-04-03T13:03:06;7.90;;;5.57;;
56255;SDS011;57229;51.432;-2.598;2023-04-03T13:09:21;9.55;;;6.00;;
56255;SDS011;57229;51.432;-2.598;2023-04-03T13:12:44;12.57;;;6.25;;
56255;SDS011;57229;51.432;-2.598;2023-04-03T13:14:51;7.93;;;6.10;;
56255;SDS011;57229;51.432;-2.598;2023-04-03T13:17:29;8.80;;;5.82;;
56255;SDS011;57229;51.432;-2.598;2023-04-03T13:20:18;10.07;;;6.50;;
56255;SDS011;57229;51.432;-2.598;2023-04-03T13:26:33;9.73;;;6.40;;
56255;SDS011;57229;51.432;-2.598;2023-04-03T13:46:01;9.85;;;6.30;;
56255;SDS011;57229;51.432;-2.598;2023-04-03T13:51:52;10.95;;;7.53;;
56255;SDS011;57229;51.432;-2.598;2023-04-03T13:54:28;7.25;;;6.60;;
56255;SDS011;57229;51.432;-2.598;2023-04-03T13:57:02;8.10;;;6.85;;
56255;SDS011;57229;51.432;-2.598;2023-04-03T13:59:36;10.00;;;7.10;;
56255;SDS011;57229;51.432;-2.598;2023-04-03T14:04:32;9.23;;;7.07;;
56255;SDS011;57229;51.432;-2.598;2023-04-03T14:07:14;8.23;;;7.40;;
56255;SDS011;57229;51.432;-2.598;2023-04-03T14:09:44;9.02;;;7.15;;
56255;SDS011;57229;51.432;-2.598;2023-04-03T14:12:15;9.10;;;7.10;;
56255;SDS011;57229;51.432;-2.598;2023-04-03T14:14:42;8.65;;;6.47;;
56255;SDS011;57229;51.432;-2.598;2023-04-03T14:17:19;8.60;;;7.03;;
56255;SDS011;57229;51.432;-2.598;2023-04-03T14:19:48;9.43;;;6.93;;
56255;SDS011;57229;51.432;-2.598;2023-04-03T14:22:17;9.45;;;7.50;;
56255;SDS011;57229;51.432;-2.598;2023-04-03T14:24:47;11.98;;;7.85;;
56255;SDS011;57229;51.432;-2.598;2023-04-03T14:29:48;8.40;;;7.40;;
56255;SDS011;57229;51.432;-2.598;2023-04-03T14:32:16;9.45;;;7.45;;
56255;SDS011;57229;51.432;-2.598;2023-04-03T14:34:43;7.95;;;7.15;;
56255;SDS011;57229;51.432;-2.598;2023-04-03T14:37:13;9.82;;;7.78;;
56255;SDS011;57229;51.432;-2.598;2023-04-03T14:39:42;11.63;;;7.78;;
56255;SDS011;57229;51.432;-2.598;2023-04-03T14:42:12;10.85;;;7.32;;
56255;SDS011;57229;51.432;-2.598;2023-04-03T14:44:40;10.00;;;8.18;;
56255;SDS011;57229;51.432;-2.598;2023-04-03T14:47:09;9.05;;;8.13;;
56255;SDS011;57229;51.432;-2.598;2023-04-03T14:49:39;9.00;;;8.10;;
56255;SDS011;57229;51.432;-2.598;2023-04-03T14:52:05;8.82;;;7.93;;
56255;SDS011;57229;51.432;-2.598;2023-04-03T14:54:31;12.23;;;8.05;;
56255;SDS011;57229;51.432;-2.598;2023-04-03T14:56:59;8.48;;;7.72;;
56255;SDS011;57229;51.432;-2.598;2023-04-03T14:59:25;13.68;;;7.72;;
56255;SDS011;57229;51.432;-2.598;2023-04-03T15:01:52;10.52;;;7.35;;
56255;SDS011;57229;51.432;-2.598;2023-04-03T15:04:18;9.80;;;7.85;;
56255;SDS011;57229;51.432;-2.598;2023-04-03T15:06:45;10.60;;;7.78;;
56255;SDS011;57229;51.432;-2.598;2023-04-03T15:09:19;9.07;;;7.65;;
56255;SDS011;57229;51.432;-2.598;2023-04-03T15:11:50;11.35;;;8.32;;
56255;SDS011;57229;51.432;-2.598;2023-04-03T15:14:18;8.20;;;7.22;;
56255;SDS011;57229;51.432;-2.598;2023-04-03T15:16:44;7.90;;;7.20;;
56255;SDS011;57229;51.432;-2.598;2023-04-03T15:19:10;9.05;;;8.00;;
56255;SDS011;57229;51.432;-2.598;2023-04-03T15:21:37;9.30;;;8.40;;
56255;SDS011;57229;51.432;-2.598;2023-04-03T15:24:03;10.15;;;8.10;;
56255;SDS011;57229;51.432;-2.598;2023-04-03T15:26:29;8.75;;;7.38;;
56255;SDS011;57229;51.432;-2.598;2023-04-03T15:28:56;10.88;;;8.10;;
56255;SDS011;57229;51.432;-2.598;2023-04-03T15:31:21;11.10;;;7.65;;
56255;SDS011;57229;51.432;-2.598;2023-04-03T15:33:47;11.45;;;8.45;;
56255;SDS011;57229;51.432;-2.598;2023-04-03T15:36:13;11.95;;;8.10;;
56255;SDS011;57229;51.432;-2.598;2023-04-03T15:38:39;7.68;;;6.93;;
56255;SDS011;57229;51.432;-2.598;2023-04-03T15:41:04;9.25;;;7.10;;
56255;SDS011;57229;51.432;-2.598;2023-04-03T15:43:31;9.35;;;7.22;;
56255;SDS011;57229;51.432;-2.598;2023-04-03T15:45:58;9.45;;;7.60;;
56255;SDS011;57229;51.432;-2.598;2023-04-03T15:48:25;9.27;;;7.75;;
56255;SDS011;57229;51.432;-2.598;2023-04-03T15:50:51;8.65;;;7.40;;
56255;SDS011;57229;51.432;-2.598;2023-04-03T15:53:17;11.30;;;7.90;;
56255;SDS011;57229;51.432;-2.598;2023-04-03T15:55:43;8.40;;;7.60;;
56255;SDS011;57229;51.432;-2.598;2023-04-03T15:58:08;11.02;;;7.25;;
56255;SDS011;57229;51.432;-2.598;2023-04-03T16:00:35;11.02;;;7.53;;
56255;SDS011;57229;51.432;-2.598;2023-04-03T16:03:04;8.43;;;7.30;;
56255;SDS011;57229;51.432;-2.598;2023-04-03T16:05:35;8.57;;;7.40;;
56255;SDS011;57229;51.432;-2.598;2023-04-03T16:08:03;10.02;;;8.38;;
56255;SDS011;57229;51.432;-2.598;2023-04-03T16:10:30;10.55;;;7.80;;
56255;SDS011;57229;51.432;-2.598;2023-04-03T16:12:56;9.30;;;7.63;;
56255;SDS011;57229;51.432;-2.598;2023-04-03T16:15:22;8.90;;;8.00;;
56255;SDS011;57229;51.432;-2.598;2023-04-03T16:17:49;10.80;;;7.90;;
56255;SDS011;57229;51.432;-2.598;2023-04-03T16:20:15;8.55;;;7.65;;
56255;SDS011;57229;51.432;-2.598;2023-04-03T16:22:41;8.95;;;7.45;;
56255;SDS011;57229;51.432;-2.598;2023-04-03T16:25:08;13.10;;;8.57;;
56255;SDS011;57229;51.432;-2.598;2023-04-03T16:27:34;9.20;;;7.35;;
56255;SDS011;57229;51.432;-2.598;2023-04-03T16:30:00;8.65;;;7.80;;
56255;SDS011;57229;51.432;-2.598;2023-04-03T16:32:26;9.27;;;8.02;;
56255;SDS011;57229;51.432;-2.598;2023-04-03T16:34:54;9.23;;;8.15;;
56255;SDS011;57229;51.432;-2.598;2023-04-03T16:37:20;9.68;;;8.20;;
56255;SDS011;57229;51.432;-2.598;2023-04-03T16:39:46;9.52;;;7.82;;
56255;SDS011;57229;51.432;-2.598;2023-04-03T16:42:12;8.50;;;7.57;;
56255;SDS011;57229;51.432;-2.598;2023-04-03T16:44:38;11.40;;;7.97;;
56255;SDS011;57229;51.432;-2.598;2023-04-03T16:47:04;10.30;;;8.02;;
56255;SDS011;57229;51.432;-2.598;2023-04-03T16:49:30;10.75;;;7.60;;
56255;SDS011;57229;51.432;-2.598;2023-04-03T16:51:59;9.98;;;8.10;;
56255;SDS011;57229;51.432;-2.598;2023-04-03T16:54:29;9.52;;;8.30;;
56255;SDS011;57229;51.432;-2.598;2023-04-03T16:56:56;10.00;;;8.18;;
56255;SDS011;57229;51.432;-2.598;2023-04-03T16:59:22;8.95;;;7.45;;
56255;SDS011;57229;51.432;-2.598;2023-04-03T17:01:49;8.63;;;7.82;;
56255;SDS011;57229;51.432;-2.598;2023-04-03T17:04:14;12.13;;;8.10;;
56255;SDS011;57229;51.432;-2.598;2023-04-03T17:06:40;10.25;;;8.07;;
56255;SDS011;57229;51.432;-2.598;2023-04-03T17:09:06;10.45;;;8.43;;
56255;SDS011;57229;51.432;-2.598;2023-04-03T17:11:34;9.90;;;8.88;;
56255;SDS011;57229;51.432;-2.598;2023-04-03T17:14:00;10.95;;;7.80;;
56255;SDS011;57229;51.432;-2.598;2023-04-03T17:16:26;9.65;;;8.68;;
56255;SDS011;57229;51.432;-2.598;2023-04-03T17:18:52;11.57;;;8.07;;
56255;SDS011;57229;51.432;-2.598;2023-04-03T17:21:19;9.30;;;7.80;;
56255;SDS011;57229;51.432;-2.598;2023-04-03T17:23:46;8.40;;;7.50;;
56255;SDS011;57229;51.432;-2.598;2023-04-03T17:26:19;10.35;;;8.18;;
56255;SDS011;57229;51.432;-2.598;2023-04-03T17:28:46;8.80;;;7.95;;
56255;SDS011;57229;51.432;-2.598;2023-04-03T17:31:11;11.45;;;8.32;;
56255;SDS011;57229;51.432;-2.598;2023-04-03T17:33:37;10.35;;;8.27;;
56255;SDS011;57229;51.432;-2.598;2023-04-03T17:36:03;12.57;;;8.02;;